createdAt,value
2017-12-09T00:01:28.537Z,100400
2017-12-09T00:03:57.763Z,100403
2017-12-09T00:09:36.421Z,100400
2017-12-09T00:14:55.411Z,100447
2017-12-09T00:17:53.121Z,100405
2017-12-09T00:20:28.892Z,100405
2017-12-09T00:30:11.384Z,100394
2017-12-09T00:32:42.338Z,100394
2017-12-09T00:35:14.721Z,100398
2017-12-09T00:37:57.000Z,100396
2017-12-09T00:40:30.347Z,100399
2017-12-09T00:45:36.126Z,100393
2017-12-09T01:08:31.084Z,100407
2017-12-09T01:14:00.057Z,100407
2017-12-09T01:16:53.166Z,100410
2017-12-09T01:19:28.584Z,100419
2017-12-09T01:24:37.930Z,100399
2017-12-09T01:27:08.093Z,100406
2017-12-09T01:29:42.553Z,100403
2017-12-09T01:40:35.619Z,100420
2017-12-09T01:43:09.401Z,100417
2017-12-09T01:51:02.177Z,100423
2017-12-09T02:48:39.495Z,100442
2017-12-09T02:53:44.837Z,100447
2017-12-09T02:56:30.112Z,100351
2017-12-09T03:05:03.011Z,100451
2017-12-09T03:07:35.108Z,100445
2017-12-09T03:14:13.329Z,100437
2017-12-09T03:23:50.214Z,100429
2017-12-09T03:26:34.065Z,100426
2017-12-09T03:39:58.628Z,100417
2017-12-09T03:49:34.389Z,100406
2017-12-09T04:07:59.678Z,100426
2017-12-09T04:16:02.618Z,100440
2017-12-09T04:18:37.438Z,100438
2017-12-09T04:26:46.278Z,100436
2017-12-09T04:32:38.619Z,100430
2017-12-09T04:35:10.719Z,100436
2017-12-09T04:40:42.556Z,100427
2017-12-09T04:43:11.762Z,100437
2017-12-09T04:45:46.530Z,100426
2017-12-09T04:48:29.026Z,100431
2017-12-09T04:51:03.350Z,100426
2017-12-09T04:53:31.468Z,100422
2017-12-09T04:56:05.332Z,100425
2017-12-09T04:58:40.405Z,100422
2017-12-09T05:01:10.015Z,100421
2017-12-09T05:03:40.131Z,100414
2017-12-09T05:06:08.272Z,100417
2017-12-09T05:08:37.208Z,100415
2017-12-09T05:11:10.098Z,100419
2017-12-09T05:13:39.150Z,100428
2017-12-09T05:19:23.250Z,100427
2017-12-09T05:21:54.144Z,100435
2017-12-09T05:24:23.233Z,100436
2017-12-09T05:26:52.232Z,100431
2017-12-09T05:29:20.316Z,100421
2017-12-09T05:31:55.316Z,100422
2017-12-09T05:34:24.456Z,100428
2017-12-09T05:36:52.576Z,100427
2017-12-09T05:39:23.297Z,100429
2017-12-09T05:41:52.193Z,100431
2017-12-09T05:44:22.119Z,100434
2017-12-09T05:46:50.219Z,100424
2017-12-09T05:49:18.304Z,100421
2017-12-09T05:51:46.952Z,100418
2017-12-09T05:54:15.092Z,100431
2017-12-09T06:01:54.619Z,100432
2017-12-09T06:04:24.791Z,100429
2017-12-09T06:06:52.916Z,100416
2017-12-09T06:09:21.004Z,100421
2017-12-09T06:11:49.136Z,100416
2017-12-09T06:14:17.223Z,100417
2017-12-09T06:16:50.544Z,100421
2017-12-09T06:19:19.602Z,100412
2017-12-09T06:21:47.712Z,100414
2017-12-09T06:24:15.842Z,100417
2017-12-09T06:26:43.951Z,100417
2017-12-09T06:31:47.436Z,100413
2017-12-09T06:34:16.636Z,100411
2017-12-09T06:36:45.903Z,100411
2017-12-09T06:39:14.015Z,100421
2017-12-09T06:41:43.184Z,100423
2017-12-09T06:44:12.148Z,100430
2017-12-09T06:46:40.300Z,100434
2017-12-09T06:49:08.433Z,100429
2017-12-09T06:51:37.568Z,100436
2017-12-09T06:54:05.810Z,100453
2017-12-09T06:56:33.936Z,100441
2017-12-09T06:59:02.015Z,100448
2017-12-09T07:04:12.535Z,100445
2017-12-09T07:06:43.723Z,100441
2017-12-09T07:09:11.808Z,100458
2017-12-09T07:11:39.997Z,100465
2017-12-09T07:14:08.139Z,100443
2017-12-09T07:16:37.272Z,100449
2017-12-09T07:19:05.540Z,100449
2017-12-09T07:21:34.248Z,100456
2017-12-09T07:24:04.296Z,100451
2017-12-09T07:26:32.440Z,100443
2017-12-09T07:29:01.315Z,100470
2017-12-09T07:31:29.404Z,100463
2017-12-09T07:33:58.376Z,100462
2017-12-09T07:36:26.456Z,100458
2017-12-09T07:38:54.624Z,100460
2017-12-09T07:41:28.682Z,100456
2017-12-09T07:43:57.598Z,100462
2017-12-09T07:46:25.727Z,100449
2017-12-09T07:48:54.612Z,100462
2017-12-09T07:51:25.221Z,100453
2017-12-09T07:53:53.307Z,100456
2017-12-09T08:00:32.520Z,100450
2017-12-09T08:11:25.979Z,100432
2017-12-09T08:13:55.089Z,100435
2017-12-09T08:16:26.679Z,100430
2017-12-09T08:18:56.707Z,100445
2017-12-09T08:21:25.155Z,100465
2017-12-09T08:26:27.696Z,100452
2017-12-09T08:28:55.968Z,100457
2017-12-09T08:31:28.101Z,100450
2017-12-09T08:34:04.246Z,100444
2017-12-09T08:36:35.329Z,100457
2017-12-09T08:39:03.549Z,100462
2017-12-09T08:41:32.454Z,100472
2017-12-09T08:44:00.592Z,100461
2017-12-09T08:46:28.825Z,100482
2017-12-09T08:48:57.057Z,100466
2017-12-09T08:51:25.915Z,100467
2017-12-09T08:53:53.992Z,100470
2017-12-09T08:56:22.181Z,100476
2017-12-09T08:58:50.289Z,100472
2017-12-09T09:03:59.167Z,100474
2017-12-09T09:09:06.554Z,100483
2017-12-09T09:11:34.676Z,100487
2017-12-09T09:14:02.849Z,100497
2017-12-09T09:16:31.030Z,100486
2017-12-09T09:18:59.196Z,100476
2017-12-09T09:21:27.327Z,100479
2017-12-09T09:23:55.564Z,100484
2017-12-09T09:26:23.651Z,100491
2017-12-09T09:28:51.762Z,100492
2017-12-09T09:31:19.884Z,100492
2017-12-09T09:33:48.844Z,100491
2017-12-09T09:36:16.975Z,100493
2017-12-09T09:38:48.704Z,100501
2017-12-09T09:41:17.215Z,100499
2017-12-09T09:43:45.312Z,100508
2017-12-09T09:46:13.424Z,100499
2017-12-09T09:48:41.607Z,100491
2017-12-09T09:51:10.560Z,100503
2017-12-09T09:53:38.757Z,100509
2017-12-09T09:56:06.852Z,100499
2017-12-09T09:58:35.753Z,100496
2017-12-09T10:01:18.355Z,100501
2017-12-09T10:03:47.244Z,100497
2017-12-09T10:06:16.095Z,100500
2017-12-09T10:08:44.259Z,100493
2017-12-09T10:11:12.801Z,100490
2017-12-09T10:13:40.917Z,100500
2017-12-09T10:16:10.080Z,100507
2017-12-09T10:18:38.195Z,100492
2017-12-09T10:21:06.361Z,100482
2017-12-09T10:23:34.439Z,100494
2017-12-09T10:26:02.600Z,100498
2017-12-09T10:28:30.783Z,100489
2017-12-09T10:30:59.036Z,100502
2017-12-09T10:33:27.196Z,100483
2017-12-09T10:35:55.377Z,100490
2017-12-09T10:38:23.459Z,100481
2017-12-09T10:40:51.939Z,100484
2017-12-09T10:43:20.205Z,100479
2017-12-09T10:45:48.347Z,100480
2017-12-09T10:48:16.524Z,100486
2017-12-09T10:50:45.056Z,100482
2017-12-09T10:53:13.398Z,100474
2017-12-09T10:55:42.516Z,100486
2017-12-09T10:58:11.082Z,100479
2017-12-09T11:00:39.665Z,100486
2017-12-09T11:03:07.786Z,100478
2017-12-09T11:05:36.003Z,100477
2017-12-09T11:08:05.405Z,100487
2017-12-09T11:10:33.475Z,100479
2017-12-09T11:13:02.405Z,100480
2017-12-09T11:15:30.483Z,100473
2017-12-09T11:17:58.652Z,100471
2017-12-09T11:20:27.591Z,100474
2017-12-09T11:22:55.895Z,100476
2017-12-09T11:25:24.049Z,100468
2017-12-09T11:27:52.946Z,100468
2017-12-09T11:30:21.830Z,100470
2017-12-09T11:32:49.926Z,100462
2017-12-09T11:35:18.193Z,100473
2017-12-09T11:37:47.088Z,100482
2017-12-09T11:40:15.240Z,100473
2017-12-09T11:42:43.381Z,100476
2017-12-09T11:45:11.520Z,100473
2017-12-09T11:47:39.692Z,100467
2017-12-09T11:50:07.857Z,100466
2017-12-09T11:52:35.965Z,100472
2017-12-09T11:55:04.110Z,100478
2017-12-09T11:57:32.337Z,100476
2017-12-09T12:00:00.500Z,100475
2017-12-09T12:02:28.909Z,100476
2017-12-09T12:04:57.036Z,100476
2017-12-09T12:07:25.912Z,100472
2017-12-09T12:09:54.051Z,100470
2017-12-09T12:12:22.431Z,100470
2017-12-09T12:14:51.480Z,100471
2017-12-09T12:17:19.594Z,100472
2017-12-09T12:19:47.670Z,100470
2017-12-09T12:22:15.881Z,100461
2017-12-09T12:24:44.046Z,100475
2017-12-09T12:27:12.168Z,100466
2017-12-09T12:29:41.291Z,100470
2017-12-09T12:32:10.276Z,100468
2017-12-09T12:34:39.131Z,100468
2017-12-09T12:37:07.253Z,100464
2017-12-09T12:39:36.585Z,100462
2017-12-09T12:42:04.933Z,100459
2017-12-09T12:44:33.787Z,100466
2017-12-09T12:47:02.159Z,100464
2017-12-09T12:49:30.270Z,100470
2017-12-09T12:51:58.437Z,100457
2017-12-09T12:54:27.680Z,100470
2017-12-09T12:56:55.776Z,100469
2017-12-09T12:59:23.943Z,100470
2017-12-09T13:01:52.167Z,100468
2017-12-09T13:04:21.021Z,100465
2017-12-09T13:06:49.172Z,100474
2017-12-09T13:09:18.232Z,100476
2017-12-09T13:11:46.951Z,100465
2017-12-09T13:14:15.162Z,100470
2017-12-09T13:16:43.327Z,100472
2017-12-09T13:19:11.486Z,100476
2017-12-09T13:21:39.591Z,100473
2017-12-09T13:24:08.712Z,100474
2017-12-09T13:26:36.904Z,100479
2017-12-09T13:29:05.104Z,100483
2017-12-09T13:31:33.340Z,100475
2017-12-09T13:34:02.308Z,100478
2017-12-09T13:36:31.209Z,100473
2017-12-09T13:39:00.368Z,100477
2017-12-09T13:41:28.585Z,100467
2017-12-09T13:43:56.783Z,100476
2017-12-09T13:46:25.011Z,100467
2017-12-09T13:48:53.145Z,100469
2017-12-09T13:51:21.268Z,100476
2017-12-09T13:53:49.363Z,100477
2017-12-09T13:56:17.560Z,100466
2017-12-09T13:58:45.722Z,100468
2017-12-09T14:01:13.847Z,100459
2017-12-09T14:03:41.940Z,100465
2017-12-09T14:06:10.124Z,100458
2017-12-09T14:08:38.993Z,100467
2017-12-09T14:11:07.161Z,100455
2017-12-09T14:13:35.294Z,100476
2017-12-09T14:16:03.425Z,100454
2017-12-09T14:18:32.316Z,100457
2017-12-09T14:21:01.187Z,100450
2017-12-09T14:23:29.299Z,100450
2017-12-09T14:25:57.512Z,100446
2017-12-09T14:28:25.657Z,100446
2017-12-09T14:30:53.751Z,100439
2017-12-09T14:33:21.992Z,100438
2017-12-09T14:35:50.120Z,100442
2017-12-09T14:38:18.205Z,100442
2017-12-09T14:40:46.367Z,100443
2017-12-09T14:43:14.643Z,100439
2017-12-09T14:45:42.789Z,100455
2017-12-09T14:48:10.932Z,100448
2017-12-09T14:50:39.055Z,100448
2017-12-09T14:53:08.182Z,100445
2017-12-09T14:55:36.267Z,100455
2017-12-09T14:58:04.670Z,100442
2017-12-09T15:00:32.920Z,100437
2017-12-09T15:03:01.029Z,100439
2017-12-09T15:08:04.013Z,100458
2017-12-09T15:10:32.139Z,100453
2017-12-09T15:13:00.273Z,100439
2017-12-09T15:22:12.072Z,100452
2017-12-09T15:27:20.534Z,100452
2017-12-09T15:29:48.912Z,100450
2017-12-09T15:32:17.033Z,100448
2017-12-09T15:34:45.150Z,100444
2017-12-09T15:37:19.096Z,100440
2017-12-09T15:39:48.183Z,100438
2017-12-09T15:42:16.431Z,100439
2017-12-09T15:44:44.540Z,100444
2017-12-09T15:47:12.639Z,100439
2017-12-09T15:49:40.855Z,100438
2017-12-09T15:52:08.962Z,100428
2017-12-09T15:54:37.100Z,100428
2017-12-09T15:57:05.321Z,100424
2017-12-09T15:59:33.511Z,100424
2017-12-09T16:02:02.061Z,100433
2017-12-09T16:04:30.353Z,100425
2017-12-09T16:06:58.436Z,100431
2017-12-09T16:09:26.568Z,100422
2017-12-09T16:11:55.704Z,100419
2017-12-09T16:14:23.835Z,100426
2017-12-09T16:16:52.101Z,100421
2017-12-09T16:19:20.189Z,100415
2017-12-09T16:21:48.427Z,100416
2017-12-09T16:24:17.088Z,100416
2017-12-09T16:26:45.271Z,100410
2017-12-09T16:29:13.365Z,100407
2017-12-09T16:31:42.375Z,100408
2017-12-09T16:34:10.478Z,100408
2017-12-09T16:36:39.376Z,100403
2017-12-09T16:39:07.464Z,100410
2017-12-09T16:41:35.604Z,100409
2017-12-09T16:44:03.813Z,100417
2017-12-09T16:46:31.911Z,100414
2017-12-09T16:49:00.787Z,100413
2017-12-09T16:51:28.884Z,100409
2017-12-09T16:53:56.968Z,100414
2017-12-09T16:56:25.309Z,100414
2017-12-09T16:58:58.064Z,100412
2017-12-09T17:01:26.148Z,100412
2017-12-09T17:03:54.301Z,100439
2017-12-09T17:06:23.409Z,100415
2017-12-09T17:08:51.762Z,100420
2017-12-09T17:14:00.017Z,100413
2017-12-09T17:16:28.209Z,100428
2017-12-09T17:18:59.458Z,100414
2017-12-09T17:21:27.669Z,100406
2017-12-09T17:23:55.806Z,100419
2017-12-09T17:26:23.997Z,100413
2017-12-09T17:28:52.921Z,100408
2017-12-09T17:34:36.906Z,100404
2017-12-09T17:37:05.046Z,100402
2017-12-09T17:39:33.175Z,100401
2017-12-09T17:42:01.256Z,100407
2017-12-09T17:44:29.432Z,100405
2017-12-09T17:47:00.248Z,100404
2017-12-09T17:49:28.482Z,100397
2017-12-09T17:51:56.582Z,100397
2017-12-09T17:54:24.908Z,100391
2017-12-09T17:56:53.647Z,100384
2017-12-09T17:59:21.880Z,100378
2017-12-09T18:01:51.760Z,100384
2017-12-09T18:04:19.860Z,100378
2017-12-09T18:06:48.798Z,100382
2017-12-09T18:09:16.991Z,100383
2017-12-09T18:11:45.080Z,100383
2017-12-09T18:14:13.247Z,100369
2017-12-09T18:16:41.457Z,100381
2017-12-09T18:19:09.584Z,100385
2017-12-09T18:21:37.680Z,100373
2017-12-09T18:24:05.842Z,100372
2017-12-09T18:26:33.954Z,100374
2017-12-09T18:29:02.071Z,100380
2017-12-09T18:31:30.242Z,100367
2017-12-09T18:33:58.304Z,100374
2017-12-09T18:36:26.410Z,100369
2017-12-09T18:38:54.518Z,100360
2017-12-09T18:41:22.658Z,100373
2017-12-09T18:43:50.752Z,100364
2017-12-09T18:46:18.835Z,100362
2017-12-09T18:48:47.080Z,100350
2017-12-09T18:51:15.268Z,100342
2017-12-09T18:53:43.501Z,100348
2017-12-09T18:56:11.630Z,100334
2017-12-09T18:58:39.731Z,100330
2017-12-09T19:01:08.119Z,100335
2017-12-09T19:03:36.343Z,100322
2017-12-09T19:06:05.519Z,100324
2017-12-09T19:08:33.717Z,100317
2017-12-09T19:11:01.849Z,100318
2017-12-09T19:13:31.158Z,100319
2017-12-09T19:15:59.270Z,100316
2017-12-09T19:18:27.393Z,100322
2017-12-09T19:20:55.575Z,100321
2017-12-09T19:23:26.637Z,100317
2017-12-09T19:25:54.831Z,100311
2017-12-09T19:28:27.829Z,100306
2017-12-09T19:30:56.199Z,100317
2017-12-09T19:33:25.350Z,100309
2017-12-09T19:35:53.626Z,100312
2017-12-09T19:38:22.732Z,100305
2017-12-09T19:40:50.819Z,100302
2017-12-09T19:43:18.967Z,100310
2017-12-09T19:45:48.093Z,100298
2017-12-09T19:48:16.276Z,100293
2017-12-09T19:50:45.223Z,100292
2017-12-09T19:53:13.339Z,100289
2017-12-09T19:55:42.557Z,100286
2017-12-09T19:58:13.940Z,100282
2017-12-09T20:00:42.014Z,100276
2017-12-09T20:03:10.318Z,100275
2017-12-09T20:05:39.437Z,100274
2017-12-09T20:08:07.612Z,100274
2017-12-09T20:10:38.548Z,100263
2017-12-09T20:13:06.748Z,100271
2017-12-09T20:15:34.920Z,100274
2017-12-09T20:18:05.116Z,100258
2017-12-09T20:20:34.008Z,100253
2017-12-09T20:23:02.933Z,100256
2017-12-09T20:25:31.063Z,100251
2017-12-09T20:27:59.318Z,100250
2017-12-09T20:30:29.472Z,100237
2017-12-09T20:32:57.630Z,100240
2017-12-09T20:35:25.744Z,100239
2017-12-09T20:37:53.875Z,100242
2017-12-09T20:40:22.040Z,100231
2017-12-09T20:42:50.273Z,100224
2017-12-09T20:45:18.421Z,100228
2017-12-09T20:47:47.302Z,100226
2017-12-09T20:50:16.144Z,100228
2017-12-09T20:52:44.287Z,100226
2017-12-09T20:55:12.412Z,100219
2017-12-09T20:57:40.679Z,100214
2017-12-09T21:00:08.849Z,100198
2017-12-09T21:02:36.977Z,100209
2017-12-09T21:05:05.896Z,100193
2017-12-09T21:07:33.996Z,100190
2017-12-09T21:10:02.206Z,100189
2017-12-09T21:12:30.343Z,100179
2017-12-09T21:14:58.432Z,100190
2017-12-09T21:17:26.524Z,100189
2017-12-09T21:19:55.520Z,100164
2017-12-09T21:22:24.386Z,100172
2017-12-09T21:24:52.484Z,100188
2017-12-09T21:27:21.396Z,100172
2017-12-09T21:29:49.519Z,100178
2017-12-09T21:32:17.704Z,100160
2017-12-09T21:34:45.827Z,100160
2017-12-09T21:37:13.935Z,100147
2017-12-09T21:39:42.063Z,100148
2017-12-09T21:42:10.172Z,100145
2017-12-09T21:44:38.280Z,100141
2017-12-09T21:47:06.433Z,100147
2017-12-09T21:49:34.544Z,100134
2017-12-09T21:52:02.675Z,100132
2017-12-09T21:54:30.774Z,100128
2017-12-09T21:56:59.947Z,100131
2017-12-09T21:59:28.047Z,100130
2017-12-09T22:01:56.892Z,100119
2017-12-09T22:04:24.996Z,100119
2017-12-09T22:06:53.841Z,100112
2017-12-09T22:09:21.930Z,100109
2017-12-09T22:11:50.081Z,100112
2017-12-09T22:14:18.160Z,100101
2017-12-09T22:16:46.297Z,100097
2017-12-09T22:19:14.452Z,100101
2017-12-09T22:21:42.559Z,100093
2017-12-09T22:24:10.702Z,100096
2017-12-09T22:26:43.674Z,100087
2017-12-09T22:29:11.828Z,100095
2017-12-09T22:31:40.152Z,100089
2017-12-09T22:34:08.292Z,100090
2017-12-09T22:36:36.367Z,100074
2017-12-09T22:39:04.466Z,100086
2017-12-09T22:41:33.398Z,100079
2017-12-09T22:44:01.531Z,100079
2017-12-09T22:46:39.474Z,100067
2017-12-09T22:49:07.561Z,100059
2017-12-09T22:51:35.655Z,100054
2017-12-09T22:54:04.660Z,100053
2017-12-09T22:56:33.581Z,100043
2017-12-09T22:59:03.694Z,100051
2017-12-09T23:01:31.812Z,100034
2017-12-09T23:03:59.959Z,100028
2017-12-09T23:09:19.316Z,100017
2017-12-09T23:11:48.204Z,100015
2017-12-09T23:14:17.095Z,100013
2017-12-09T23:16:45.939Z,100006
2017-12-09T23:19:14.056Z,100005
2017-12-09T23:21:42.139Z,100003
2017-12-09T23:24:10.257Z,99992
2017-12-09T23:26:38.421Z,99986
2017-12-09T23:29:06.532Z,99977
2017-12-09T23:31:34.668Z,99983
2017-12-09T23:34:02.800Z,99977
2017-12-09T23:36:31.674Z,99973
2017-12-09T23:38:59.771Z,99978
2017-12-09T23:41:27.979Z,99976
2017-12-09T23:43:56.104Z,99976
2017-12-09T23:46:24.900Z,99967
2017-12-09T23:48:53.036Z,99966
2017-12-09T23:51:21.207Z,99968
2017-12-09T23:53:49.293Z,99963
2017-12-09T23:56:17.507Z,99963
2017-12-09T23:58:45.586Z,99953
